Time;durP1;ratioP1;P1;durP2;ratioP2;P2;SDS_P1;SDS_P2;PMS_P1;PMS_P2;Temp;Humidity;BMP_temperature;BMP_pressure;BME280_temperature;BME280_humidity;BME280_pressure;Samples;Min_cycle;Max_cycle;Signal;HPM_P1;HPM_P2
2023/06/08 00:02:24;;;;;;;9.30;7.05;;;17.60;99.90;;;;;;5049080;28;20037;-76
2023/06/08 00:04:52;;;;;;;8.35;6.93;;;17.60;99.90;;;;;;5049416;28;20029;-76
2023/06/08 00:07:19;;;;;;;10.00;6.30;;;17.60;99.90;;;;;;5049177;28;20033;-75
2023/06/08 00:09:45;;;;;;;11.48;7.50;;;17.60;99.90;;;;;;5049273;28;20029;-76
2023/06/08 00:12:11;;;;;;;11.07;7.45;;;17.60;99.90;;;;;;5049016;28;20033;-76
2023/06/08 00:14:38;;;;;;;11.65;8.77;;;17.60;99.90;;;;;;5048989;28;20493;-75
2023/06/08 00:17:04;;;;;;;13.13;7.25;;;17.60;99.90;;;;;;5048849;28;20029;-74
2023/06/08 00:19:31;;;;;;;13.23;8.40;;;17.60;99.90;;;;;;5048532;28;20032;-76
2023/06/08 00:21:59;;;;;;;8.07;6.55;;;17.60;99.90;;;;;;5051087;28;20803;-76
2023/06/08 00:24:25;;;;;;;11.20;8.32;;;17.50;99.90;;;;;;5052636;28;20031;-75
2023/06/08 00:26:51;;;;;;;8.15;6.63;;;17.50;99.90;;;;;;5052624;28;20033;-75
2023/06/08 00:29:17;;;;;;;15.75;7.90;;;17.50;99.90;;;;;;5052413;28;20405;-76
2023/06/08 00:31:43;;;;;;;10.32;6.28;;;17.50;99.90;;;;;;5051160;28;20032;-76
2023/06/08 00:34:08;;;;;;;11.15;6.88;;;17.50;99.90;;;;;;5052525;28;20029;-75
2023/06/08 00:36:34;;;;;;;10.23;6.75;;;17.50;99.90;;;;;;5052253;28;20025;-75
2023/06/08 00:38:59;;;;;;;10.27;6.47;;;17.50;99.90;;;;;;5052333;28;20060;-75
2023/06/08 00:41:25;;;;;;;11.27;6.78;;;17.50;99.90;;;;;;5052212;28;20079;-75
2023/06/08 00:43:51;;;;;;;11.18;6.55;;;17.40;99.90;;;;;;5052409;28;20041;-75
2023/06/08 00:46:17;;;;;;;7.85;6.70;;;17.40;99.90;;;;;;5052223;28;20032;-76
2023/06/08 00:48:43;;;;;;;7.63;6.20;;;17.40;99.90;;;;;;5052175;28;20033;-76
2023/06/08 00:51:11;;;;;;;10.20;6.68;;;17.40;99.90;;;;;;5052018;28;20021;-76
2023/06/08 00:53:37;;;;;;;7.63;6.15;;;17.40;99.90;;;;;;5052197;28;20064;-76
2023/06/08 00:56:04;;;;;;;10.50;6.40;;;17.30;99.90;;;;;;5051890;28;20040;-74
2023/06/08 00:58:30;;;;;;;7.60;5.90;;;17.30;99.90;;;;;;5050569;28;20421;-76
2023/06/08 01:00:59;;;;;;;9.38;5.75;;;17.20;99.90;;;;;;5050643;28;20049;-76
2023/06/08 01:03:33;;;;;;;14.90;6.10;;;17.20;99.90;;;;;;5051854;28;20028;-75
2023/06/08 01:06:00;;;;;;;8.07;5.97;;;17.20;99.90;;;;;;5051838;28;20025;-75
2023/06/08 01:08:52;;;;;;;10.73;6.82;;;17.10;99.90;;;;;;5051923;28;20033;-76
2023/06/08 01:12:08;;;;;;;8.27;6.70;;;17.10;99.90;;;;;;5051394;28;20394;-75
2023/06/08 01:14:55;;;;;;;9.13;6.45;;;17.10;99.90;;;;;;5029314;28;20029;-76
2023/06/08 01:17:27;;;;;;;8.10;7.03;;;17.10;99.90;;;;;;5029013;28;20152;-76
2023/06/08 01:20:03;;;;;;;12.13;6.20;;;17.00;99.90;;;;;;5045601;28;20037;-75
2023/06/08 01:22:56;;;;;;;8.73;6.50;;;17.00;99.90;;;;;;5051617;28;20663;-76
2023/06/08 01:25:26;;;;;;;14.70;6.70;;;17.00;99.90;;;;;;5051439;28;20024;-75
2023/06/08 01:28:12;;;;;;;15.27;7.88;;;17.00;99.90;;;;;;5051637;28;20031;-75
2023/06/08 01:30:41;;;;;;;9.15;6.88;;;17.00;99.90;;;;;;5051522;28;20033;-76
2023/06/08 01:33:12;;;;;;;10.20;5.70;;;17.00;99.90;;;;;;5050178;28;20516;-75
2023/06/08 01:35:38;;;;;;;8.63;5.88;;;17.00;99.90;;;;;;5051255;28;20029;-76
2023/06/08 01:38:33;;;;;;;11.10;5.88;;;17.00;99.90;;;;;;5051644;28;20024;-76
2023/06/08 01:41:07;;;;;;;8.45;6.47;;;17.10;99.90;;;;;;5051318;28;20087;-76
2023/06/08 01:43:35;;;;;;;8.35;6.03;;;17.10;99.90;;;;;;5051112;28;20029;-76
2023/06/08 01:46:05;;;;;;;6.97;6.28;;;17.10;99.90;;;;;;5049804;28;20082;-76
2023/06/08 01:48:32;;;;;;;8.20;6.57;;;17.10;99.90;;;;;;5051240;28;20032;-75
2023/06/08 01:50:58;;;;;;;9.75;6.15;;;17.10;99.90;;;;;;5050971;28;20108;-75
2023/06/08 01:53:24;;;;;;;10.35;5.88;;;17.10;99.90;;;;;;5050899;28;20440;-76
2023/06/08 01:55:50;;;;;;;7.90;5.80;;;17.20;99.90;;;;;;5050731;28;20083;-75
2023/06/08 01:58:16;;;;;;;7.65;5.45;;;17.20;99.90;;;;;;5051084;28;20040;-75
2023/06/08 02:00:41;;;;;;;9.40;5.57;;;17.20;99.90;;;;;;5050930;28;20040;-76
2023/06/08 02:03:07;;;;;;;8.57;5.97;;;17.20;99.90;;;;;;5049624;28;20025;-76
2023/06/08 02:05:33;;;;;;;5.72;5.13;;;17.20;99.90;;;;;;5050627;28;20031;-75
2023/06/08 02:07:58;;;;;;;7.38;5.13;;;17.20;99.90;;;;;;5049424;28;20036;-75
2023/06/08 02:10:24;;;;;;;6.38;5.68;;;17.30;99.90;;;;;;5050666;28;20059;-76
2023/06/08 02:12:50;;;;;;;6.90;5.53;;;17.30;99.90;;;;;;5050699;28;20052;-75
2023/06/08 02:15:16;;;;;;;9.38;7.00;;;17.30;99.90;;;;;;5050536;28;20426;-76
2023/06/08 02:17:42;;;;;;;8.63;5.95;;;17.30;99.90;;;;;;5050489;28;20024;-77
2023/06/08 02:20:09;;;;;;;12.60;6.95;;;17.30;99.90;;;;;;5049060;28;20067;-75
2023/06/08 02:22:36;;;;;;;6.97;5.65;;;17.30;99.90;;;;;;5050444;28;20029;-75
2023/06/08 02:25:07;;;;;;;9.07;6.40;;;17.30;99.90;;;;;;5049044;28;20021;-75
2023/06/08 02:27:36;;;;;;;9.15;6.68;;;17.30;99.90;;;;;;5050382;28;20060;-75
2023/06/08 02:30:03;;;;;;;10.75;7.43;;;17.30;99.90;;;;;;5049204;28;20516;-75
2023/06/08 02:32:32;;;;;;;9.32;6.57;;;17.30;99.90;;;;;;5048916;28;20357;-75
2023/06/08 02:35:03;;;;;;;9.95;5.68;;;17.30;99.90;;;;;;5049925;28;20032;-75
2023/06/08 02:37:30;;;;;;;11.68;7.10;;;17.30;99.90;;;;;;5049988;28;20082;-74
2023/06/08 02:39:56;;;;;;;9.75;6.57;;;17.30;99.90;;;;;;5048765;28;20032;-75
2023/06/08 02:42:22;;;;;;;9.52;6.55;;;17.30;99.90;;;;;;5050114;28;20033;-75
2023/06/08 02:44:48;;;;;;;9.82;6.20;;;17.30;99.90;;;;;;5049620;28;20078;-74
2023/06/08 02:47:15;;;;;;;9.45;6.20;;;17.30;99.90;;;;;;5049656;28;20021;-74
2023/06/08 02:49:41;;;;;;;9.35;6.03;;;17.40;99.90;;;;;;5049862;28;20025;-74
2023/06/08 02:52:07;;;;;;;7.68;5.03;;;17.40;99.90;;;;;;5049927;28;20139;-76
2023/06/08 02:54:33;;;;;;;5.85;4.78;;;17.40;99.90;;;;;;5049726;28;20178;-75
2023/06/08 02:56:58;;;;;;;13.75;6.60;;;17.50;99.90;;;;;;5049655;28;20132;-75
2023/06/08 02:59:24;;;;;;;8.25;5.68;;;17.50;99.90;;;;;;5049788;28;20068;-75
2023/06/08 03:01:53;;;;;;;8.55;6.68;;;17.50;99.90;;;;;;5048243;28;20048;-76
2023/06/08 03:04:23;;;;;;;7.50;5.53;;;17.50;99.90;;;;;;5049647;28;20111;-74
2023/06/08 03:06:53;;;;;;;9.55;6.07;;;17.50;99.90;;;;;;5049741;28;20099;-75
2023/06/08 03:09:23;;;;;;;6.50;5.78;;;17.50;99.90;;;;;;5049389;28;20029;-75
2023/06/08 03:11:49;;;;;;;10.10;6.57;;;17.50;99.90;;;;;;5050075;28;20477;-75
2023/06/08 03:14:16;;;;;;;10.73;6.70;;;17.50;99.90;;;;;;5049650;28;20081;-76
2023/06/08 03:16:44;;;;;;;10.05;7.05;;;17.50;99.90;;;;;;5049523;28;20387;-77
2023/06/08 03:19:10;;;;;;;8.88;6.20;;;17.50;99.90;;;;;;5049368;28;20029;-76
2023/06/08 03:21:36;;;;;;;7.53;5.57;;;17.50;99.90;;;;;;5049584;28;20063;-75
2023/06/08 03:24:03;;;;;;;7.63;6.50;;;17.50;99.90;;;;;;5050015;28;20025;-76
2023/06/08 03:26:29;;;;;;;11.07;7.00;;;17.50;99.90;;;;;;5049654;28;20104;-74
2023/06/08 03:28:54;;;;;;;8.18;5.78;;;17.50;99.90;;;;;;5049456;28;20158;-74
2023/06/08 03:31:20;;;;;;;11.45;7.03;;;17.60;99.90;;;;;;5049125;28;20036;-76
2023/06/08 03:33:46;;;;;;;8.98;7.28;;;17.50;99.90;;;;;;5049222;28;20028;-76
2023/06/08 03:36:12;;;;;;;8.60;6.03;;;17.60;99.90;;;;;;5049164;28;20039;-76
2023/06/08 03:38:38;;;;;;;8.65;6.32;;;17.60;99.90;;;;;;5049267;28;20025;-75
2023/06/08 03:41:04;;;;;;;8.27;5.78;;;17.70;99.90;;;;;;5049507;28;20041;-75
2023/06/08 03:43:29;;;;;;;7.03;5.60;;;17.70;99.90;;;;;;5047676;28;20504;-76
2023/06/08 03:45:55;;;;;;;6.38;5.43;;;17.70;99.90;;;;;;5048977;28;20029;-76
2023/06/08 03:48:21;;;;;;;9.45;6.20;;;17.80;99.90;;;;;;5049124;28;20041;-76
2023/06/08 03:50:46;;;;;;;10.70;6.43;;;17.80;99.90;;;;;;5047768;28;20028;-76
2023/06/08 03:53:12;;;;;;;9.52;6.28;;;17.80;99.90;;;;;;5047762;28;20041;-76
2023/06/08 03:55:38;;;;;;;9.70;6.20;;;17.90;99.90;;;;;;5047769;28;20405;-76
2023/06/08 03:58:05;;;;;;;7.70;5.97;;;17.90;99.90;;;;;;5051815;28;20053;-76
2023/06/08 04:00:30;;;;;;;8.88;6.15;;;18.00;99.90;;;;;;5051567;28;20110;-76
2023/06/08 04:02:57;;;;;;;6.10;5.43;;;18.00;99.90;;;;;;5051749;28;20091;-76
2023/06/08 04:05:22;;;;;;;7.97;6.75;;;18.10;99.90;;;;;;5051566;28;20021;-76
2023/06/08 04:07:50;;;;;;;7.10;6.30;;;18.20;99.90;;;;;;5052822;28;20032;-76
2023/06/08 04:10:16;;;;;;;10.15;6.40;;;18.30;99.90;;;;;;5052872;28;20013;-75
2023/06/08 04:12:55;;;;;;;7.30;6.38;;;18.40;99.90;;;;;;5052647;28;20021;-76
2023/06/08 04:15:21;;;;;;;7.05;5.82;;;18.50;99.90;;;;;;5052658;28;20045;-76
2023/06/08 04:17:49;;;;;;;7.32;5.72;;;18.50;99.90;;;;;;5051385;28;20418;-75
2023/06/08 04:20:15;;;;;;;7.30;5.97;;;18.60;99.90;;;;;;5052468;28;20025;-75
2023/06/08 04:22:41;;;;;;;9.90;5.68;;;18.70;99.90;;;;;;5051307;28;20044;-75
2023/06/08 04:25:07;;;;;;;8.38;6.50;;;18.70;99.90;;;;;;5052657;28;20025;-75
2023/06/08 04:27:34;;;;;;;10.15;6.13;;;18.80;99.90;;;;;;5051998;28;20029;-75
2023/06/08 04:30:00;;;;;;;8.45;6.47;;;18.90;99.90;;;;;;5052241;28;20017;-76
2023/06/08 04:32:26;;;;;;;7.70;5.85;;;18.90;99.90;;;;;;5052247;28;20044;-77
2023/06/08 04:34:52;;;;;;;7.65;5.43;;;19.00;99.90;;;;;;5052381;28;20029;-76
2023/06/08 04:37:17;;;;;;;10.25;5.82;;;19.00;99.90;;;;;;5052529;28;20040;-76
2023/06/08 04:39:43;;;;;;;7.40;4.88;;;19.10;99.90;;;;;;5052160;28;20024;-75
2023/06/08 04:42:09;;;;;;;8.30;5.30;;;19.20;99.90;;;;;;5052141;28;20041;-76
2023/06/08 04:44:35;;;;;;;9.00;5.70;;;19.30;99.90;;;;;;5052315;28;20017;-77
2023/06/08 04:47:02;;;;;;;12.80;4.82;;;19.40;99.90;;;;;;5052053;28;20401;-77
2023/06/08 04:49:32;;;;;;;7.28;5.57;;;19.50;99.90;;;;;;5052030;28;20025;-77
2023/06/08 04:52:00;;;;;;;8.50;5.38;;;19.60;99.90;;;;;;5052030;28;20037;-76
2023/06/08 04:54:30;;;;;;;13.25;5.93;;;19.70;99.90;;;;;;5051950;28;20017;-75
2023/06/08 04:56:58;;;;;;;9.40;6.32;;;19.80;99.90;;;;;;5051703;28;20433;-76
2023/06/08 04:59:27;;;;;;;6.63;5.53;;;19.90;99.90;;;;;;5051924;28;20021;-76
2023/06/08 05:01:54;;;;;;;12.02;6.20;;;19.90;99.90;;;;;;5050292;28;20033;-76
2023/06/08 05:04:20;;;;;;;10.43;5.75;;;19.90;99.90;;;;;;5051790;28;20017;-77
2023/06/08 05:06:47;;;;;;;10.10;5.88;;;19.80;99.90;;;;;;5051554;28;20048;-75
2023/06/08 05:09:13;;;;;;;11.35;6.70;;;19.90;99.90;;;;;;5051561;28;20021;-76
2023/06/08 05:11:39;;;;;;;20.15;6.63;;;19.80;99.90;;;;;;5051646;28;20025;-77
2023/06/08 05:14:05;;;;;;;15.27;6.28;;;19.80;99.90;;;;;;5051627;28;20033;-79
2023/06/08 05:16:31;;;;;;;12.02;6.72;;;19.70;99.90;;;;;;5051421;28;20460;-77
2023/06/08 05:18:57;;;;;;;13.63;6.03;;;19.90;99.90;;;;;;5051646;28;20031;-76
2023/06/08 05:21:22;;;;;;;8.98;5.78;;;20.00;99.90;;;;;;5051314;28;20174;-77
2023/06/08 05:23:48;;;;;;;16.75;6.53;;;20.20;99.90;;;;;;5051425;28;20518;-77
2023/06/08 05:26:13;;;;;;;6.03;4.95;;;20.50;99.90;;;;;;5051396;28;20029;-77
2023/06/08 05:28:39;;;;;;;11.13;5.55;;;20.60;99.90;;;;;;5051369;28;20501;-77
2023/06/08 05:31:05;;;;;;;12.55;5.93;;;20.90;99.90;;;;;;5050017;28;20123;-76
2023/06/08 05:33:31;;;;;;;9.43;4.70;;;21.10;99.90;;;;;;5051516;28;20033;-77
2023/06/08 05:35:57;;;;;;;8.43;4.97;;;21.40;99.90;;;;;;5051171;28;20033;-77
2023/06/08 05:38:22;;;;;;;10.82;5.57;;;21.60;99.90;;;;;;5049710;28;20079;-77
2023/06/08 05:40:48;;;;;;;7.95;5.13;;;22.00;99.90;;;;;;5049986;28;20033;-77
2023/06/08 05:43:14;;;;;;;9.07;5.05;;;22.20;99.90;;;;;;5050880;28;20029;-77
2023/06/08 05:45:40;;;;;;;8.73;4.95;;;22.60;99.90;;;;;;5050904;28;20493;-77
2023/06/08 05:48:07;;;;;;;8.45;5.10;;;22.80;99.90;;;;;;5050938;28;20081;-77
2023/06/08 05:50:33;;;;;;;6.45;4.45;;;22.80;99.90;;;;;;5050950;28;20501;-77
2023/06/08 05:52:59;;;;;;;9.48;4.38;;;23.00;99.90;;;;;;5050871;28;20065;-77
2023/06/08 05:55:25;;;;;;;8.07;4.63;;;23.20;99.90;;;;;;5049169;28;20501;-78
2023/06/08 05:57:51;;;;;;;6.88;4.55;;;23.10;99.90;;;;;;5050680;28;20053;-77
2023/06/08 06:00:17;;;;;;;7.10;4.32;;;23.10;99.90;;;;;;5050597;28;20086;-77
2023/06/08 06:02:43;;;;;;;9.60;4.55;;;23.00;99.90;;;;;;5050794;28;20132;-78
2023/06/08 06:05:09;;;;;;;6.28;4.25;;;22.90;99.90;;;;;;5050390;28;20056;-77
2023/06/08 06:07:35;;;;;;;9.40;5.10;;;22.90;99.90;;;;;;5050639;28;20036;-77
2023/06/08 06:10:03;;;;;;;11.88;5.07;;;22.80;99.90;;;;;;5050529;28;20039;-78
2023/06/08 06:12:29;;;;;;;9.02;4.95;;;22.70;99.90;;;;;;5050481;28;20028;-74
2023/06/08 06:14:55;;;;;;;7.15;4.93;;;22.80;99.90;;;;;;5050591;28;20032;-75
2023/06/08 06:17:21;;;;;;;8.85;5.18;;;22.80;99.90;;;;;;5050401;28;20627;-74
2023/06/08 06:19:47;;;;;;;7.90;5.18;;;22.80;99.90;;;;;;5049866;28;20405;-74
2023/06/08 06:22:13;;;;;;;12.07;5.82;;;23.00;99.90;;;;;;5050268;28;20489;-73
2023/06/08 06:24:39;;;;;;;9.02;5.20;;;23.20;99.90;;;;;;5050247;28;20086;-74
2023/06/08 06:27:06;;;;;;;14.93;4.90;;;23.10;99.90;;;;;;5050609;28;20452;-74
2023/06/08 06:29:32;;;;;;;6.15;4.47;;;23.20;99.90;;;;;;5050404;28;20035;-74
2023/06/08 06:31:58;;;;;;;5.97;4.32;;;23.50;99.90;;;;;;5050342;28;20057;-74
2023/06/08 06:34:23;;;;;;;7.03;3.92;;;23.40;99.90;;;;;;5050402;28;20061;-75
2023/06/08 06:36:49;;;;;;;9.38;5.20;;;23.80;99.90;;;;;;5050532;28;20029;-73
2023/06/08 06:39:15;;;;;;;14.27;4.47;;;23.70;99.90;;;;;;5050412;28;20025;-75
2023/06/08 06:41:41;;;;;;;7.60;5.40;;;23.60;99.90;;;;;;5049714;28;20491;-74
2023/06/08 06:44:07;;;;;;;9.27;4.78;;;23.40;99.90;;;;;;5049899;28;20029;-75
2023/06/08 06:46:33;;;;;;;8.52;4.97;;;23.30;99.90;;;;;;5050121;28;20078;-74
2023/06/08 06:48:59;;;;;;;9.05;4.65;;;23.40;99.90;;;;;;5049932;28;20029;-75
2023/06/08 06:51:25;;;;;;;6.25;4.18;;;23.20;99.90;;;;;;5048548;28;20554;-74
2023/06/08 06:53:51;;;;;;;6.03;4.70;;;22.90;99.90;;;;;;5049873;28;20451;-74
2023/06/08 06:56:17;;;;;;;8.60;4.47;;;22.60;99.90;;;;;;5049531;28;20048;-75
2023/06/08 06:58:44;;;;;;;6.38;4.57;;;22.50;99.90;;;;;;5048218;28;20041;-75
2023/06/08 07:01:15;;;;;;;5.50;4.50;;;22.30;99.90;;;;;;5047962;28;20036;-75
2023/06/08 07:03:46;;;;;;;6.32;5.18;;;22.20;99.90;;;;;;5049542;28;20021;-76
2023/06/08 07:06:12;;;;;;;11.93;5.30;;;22.00;99.90;;;;;;5048299;28;20037;-75
2023/06/08 07:08:38;;;;;;;7.03;5.18;;;21.80;99.90;;;;;;5049113;28;20029;-75
2023/06/08 07:11:05;;;;;;;9.65;5.47;;;21.60;99.90;;;;;;5048159;28;20025;-74
2023/06/08 07:13:31;;;;;;;12.43;5.55;;;21.50;99.90;;;;;;5049421;28;20028;-75
2023/06/08 07:15:57;;;;;;;15.38;5.47;;;21.40;99.90;;;;;;5049277;28;20025;-75
2023/06/08 07:18:23;;;;;;;9.02;5.43;;;21.40;99.90;;;;;;5049277;28;20096;-75
2023/06/08 07:20:49;;;;;;;10.13;5.07;;;21.30;99.90;;;;;;5049389;28;20120;-75
2023/06/08 07:23:14;;;;;;;12.57;6.35;;;21.10;99.90;;;;;;5048957;28;20040;-76
2023/06/08 07:25:40;;;;;;;8.48;5.57;;;21.10;99.90;;;;;;5049206;28;20014;-76
2023/06/08 07:28:07;;;;;;;9.10;6.18;;;21.10;99.90;;;;;;5047813;28;20040;-75
2023/06/08 07:30:33;;;;;;;7.68;5.80;;;21.10;99.90;;;;;;5048096;28;20079;-76
2023/06/08 07:32:59;;;;;;;8.73;6.07;;;21.10;99.90;;;;;;5049023;28;20501;-76
2023/06/08 07:35:25;;;;;;;9.18;5.28;;;21.00;99.90;;;;;;5048911;28;20025;-75
2023/06/08 07:37:52;;;;;;;9.65;5.80;;;20.90;99.90;;;;;;5049224;28;20827;-76
2023/06/08 07:40:18;;;;;;;9.25;5.60;;;20.80;99.90;;;;;;5049197;28;20017;-76
2023/06/08 07:42:45;;;;;;;7.82;5.78;;;20.80;99.90;;;;;;5049086;28;20029;-76
2023/06/08 07:45:12;;;;;;;10.25;6.40;;;20.70;99.90;;;;;;5048830;28;20494;-76
2023/06/08 07:47:38;;;;;;;11.55;5.53;;;20.80;99.90;;;;;;5049149;28;20039;-77
2023/06/08 07:50:08;;;;;;;7.40;5.53;;;20.80;99.90;;;;;;5049270;28;20025;-75
2023/06/08 07:52:35;;;;;;;8.15;5.25;;;21.10;99.90;;;;;;5049330;28;20036;-75
2023/06/08 07:55:01;;;;;;;10.15;5.25;;;21.50;99.90;;;;;;5049073;28;20029;-76
2023/06/08 07:57:27;;;;;;;8.45;4.60;;;21.80;99.90;;;;;;5048888;28;20059;-77
2023/06/08 07:59:53;;;;;;;8.85;4.82;;;22.30;99.90;;;;;;5048816;28;20037;-76
2023/06/08 08:02:19;;;;;;;7.75;4.28;;;22.70;99.90;;;;;;5048989;28;20123;-75
2023/06/08 08:04:45;;;;;;;6.68;5.03;;;22.70;99.90;;;;;;5048992;28;20021;-76
2023/06/08 08:07:11;;;;;;;12.25;5.47;;;22.80;99.90;;;;;;5048844;28;20053;-75
2023/06/08 08:09:37;;;;;;;9.43;5.32;;;22.90;99.90;;;;;;5048580;28;20509;-76
2023/06/08 08:12:03;;;;;;;5.38;4.07;;;22.90;99.90;;;;;;5048712;28;20428;-77
2023/06/08 08:14:28;;;;;;;8.43;5.28;;;23.10;99.90;;;;;;5048725;28;20056;-75
2023/06/08 08:16:54;;;;;;;7.20;5.63;;;23.10;99.90;;;;;;5048837;28;20626;-76
2023/06/08 08:19:20;;;;;;;7.28;5.47;;;23.20;99.90;;;;;;5048638;28;20543;-77
2023/06/08 08:21:45;;;;;;;10.32;4.97;;;23.30;99.90;;;;;;5048753;28;20113;-75
2023/06/08 08:24:11;;;;;;;7.57;6.50;;;23.50;99.90;;;;;;5048725;28;20060;-76
2023/06/08 08:26:40;;;;;;;7.75;5.00;;;23.40;99.90;;;;;;5048734;28;20348;-76
2023/06/08 08:29:06;;;;;;;8.98;5.28;;;23.50;99.90;;;;;;5048464;28;20036;-75
2023/06/08 08:31:32;;;;;;;6.35;5.43;;;23.70;99.90;;;;;;5048676;28;20048;-75
2023/06/08 08:33:58;;;;;;;7.32;4.88;;;23.70;99.90;;;;;;5048776;28;20488;-74
2023/06/08 08:36:24;;;;;;;8.13;4.80;;;23.60;99.90;;;;;;5048709;28;20408;-75
2023/06/08 08:38:49;;;;;;;7.82;3.70;;;23.50;99.90;;;;;;5048949;28;20025;-76
2023/06/08 08:41:19;;;;;;;5.07;4.35;;;23.60;99.90;;;;;;5048621;28;20402;-76
2023/06/08 08:44:13;;;;;;;9.00;5.07;;;23.90;99.90;;;;;;5051771;28;20467;-77
2023/06/08 08:46:42;;;;;;;8.38;4.47;;;24.20;99.90;;;;;;5050661;28;20029;-76
2023/06/08 08:49:15;;;;;;;11.52;5.10;;;24.30;99.90;;;;;;5052078;28;20512;-75
2023/06/08 08:51:43;;;;;;;7.72;5.68;;;24.70;99.90;;;;;;5052082;28;20031;-75
2023/06/08 08:54:12;;;;;;;9.70;7.97;;;24.80;99.90;;;;;;5051955;28;20028;-75
2023/06/08 08:56:38;;;;;;;11.25;5.82;;;24.90;99.90;;;;;;5051763;28;20103;-76
2023/06/08 08:59:05;;;;;;;15.80;7.47;;;24.80;99.90;;;;;;5051910;28;20021;-75
2023/06/08 09:01:32;;;;;;;9.10;7.75;;;25.20;99.90;;;;;;5051319;28;20048;-77
2023/06/08 09:04:03;;;;;;;12.07;8.68;;;25.30;99.90;;;;;;5050688;28;20452;-75
2023/06/08 09:06:29;;;;;;;14.85;10.27;;;25.60;99.90;;;;;;5049781;28;20386;-76
2023/06/08 09:08:55;;;;;;;15.02;7.97;;;25.80;99.90;;;;;;5051582;28;20028;-76
2023/06/08 09:11:21;;;;;;;10.82;7.53;;;26.10;99.90;;;;;;5051566;28;20033;-77
2023/06/08 09:13:47;;;;;;;14.52;6.72;;;26.20;98.70;;;;;;5051994;28;20100;-76
2023/06/08 09:16:19;;;;;;;11.57;7.63;;;26.10;99.90;;;;;;5051799;28;20021;-77
2023/06/08 09:18:46;;;;;;;14.68;7.53;;;26.00;99.90;;;;;;5051708;28;20025;-77
2023/06/08 09:21:29;;;;;;;11.02;7.32;;;25.80;99.90;;;;;;5051287;28;20053;-76
2023/06/08 09:24:04;;;;;;;9.15;7.40;;;25.60;99.90;;;;;;5051443;28;20037;-76
2023/06/08 09:26:32;;;;;;;10.63;6.70;;;25.40;99.90;;;;;;5051623;28;20027;-76
2023/06/08 09:29:00;;;;;;;10.82;7.20;;;25.50;99.90;;;;;;5051486;28;20075;-76
2023/06/08 09:31:29;;;;;;;10.75;7.10;;;25.70;99.90;;;;;;5051291;28;20021;-77
2023/06/08 09:34:15;;;;;;;8.40;5.95;;;25.70;99.90;;;;;;5051489;28;20021;-76
2023/06/08 09:36:43;;;;;;;9.48;5.18;;;26.40;99.90;;;;;;5051021;28;20037;-76
2023/06/08 09:39:09;;;;;;;8.43;6.32;;;27.20;98.10;;;;;;5051359;28;20033;-77
2023/06/08 09:41:38;;;;;;;8.23;5.22;;;27.70;93.40;;;;;;5050928;28;20122;-76
2023/06/08 09:44:18;;;;;;;11.35;5.95;;;27.60;95.10;;;;;;5051066;28;20032;-77
2023/06/08 09:46:48;;;;;;;22.80;6.72;;;28.20;87.20;;;;;;5051061;28;20029;-76
2023/06/08 09:49:15;;;;;;;10.35;5.85;;;28.50;87.80;;;;;;5050705;28;20032;-76
2023/06/08 09:51:49;;;;;;;7.80;5.80;;;28.70;88.70;;;;;;5051392;28;20032;-73
2023/06/08 09:54:16;;;;;;;12.00;6.13;;;29.10;81.30;;;;;;5049944;28;20025;-76
2023/06/08 09:56:54;;;;;;;11.90;6.28;;;28.50;81.00;;;;;;5049599;28;20232;-75
2023/06/08 09:59:26;;;;;;;6.55;5.50;;;27.50;86.80;;;;;;5050830;28;20028;-76
2023/06/08 10:01:58;;;;;;;9.48;6.13;;;27.00;92.60;;;;;;5050350;28;20048;-76
2023/06/08 10:04:31;;;;;;;11.20;5.65;;;27.00;91.70;;;;;;5050655;28;20083;-76
2023/06/08 10:07:01;;;;;;;15.18;7.50;;;26.60;93.70;;;;;;5050616;28;20028;-76
2023/06/08 10:09:28;;;;;;;14.20;6.43;;;26.50;93.60;;;;;;5050525;28;20091;-76
2023/06/08 10:11:57;;;;;;;9.48;7.13;;;26.20;95.50;;;;;;5050677;28;20017;-76
2023/06/08 10:14:25;;;;;;;8.27;6.78;;;25.90;97.60;;;;;;5050408;28;20602;-76
2023/06/08 10:16:51;;;;;;;12.93;7.40;;;25.60;99.90;;;;;;5050665;28;20021;-75
2023/06/08 10:19:18;;;;;;;9.93;7.10;;;25.50;99.90;;;;;;5049014;28;20589;-77
2023/06/08 10:21:46;;;;;;;10.13;6.57;;;25.30;99.90;;;;;;5049204;28;20080;-76
2023/06/08 10:24:12;;;;;;;6.57;5.65;;;25.10;99.90;;;;;;5050562;28;20029;-75
2023/06/08 10:26:38;;;;;;;9.18;6.00;;;25.10;99.90;;;;;;5050195;28;20559;-75
2023/06/08 10:29:10;;;;;;;8.82;5.35;;;25.30;99.90;;;;;;5048835;28;20052;-75
2023/06/08 10:31:47;;;;;;;12.65;6.68;;;25.40;99.40;;;;;;5050116;28;20610;-74
2023/06/08 10:34:14;;;;;;;6.85;5.85;;;25.30;99.90;;;;;;5050007;28;20287;-75
2023/06/08 10:36:42;;;;;;;11.27;6.68;;;25.20;99.90;;;;;;5048736;28;20033;-75
2023/06/08 10:39:16;;;;;;;12.10;5.63;;;25.20;99.90;;;;;;5050226;28;20052;-75
2023/06/08 10:41:56;;;;;;;9.68;5.03;;;25.00;99.90;;;;;;5048554;28;20045;-74
2023/06/08 10:44:40;;;;;;;9.57;5.57;;;24.80;99.90;;;;;;5049847;28;20057;-75
2023/06/08 10:47:12;;;;;;;8.15;4.20;;;24.90;99.90;;;;;;5050047;28;20017;-76
2023/06/08 10:49:43;;;;;;;5.07;4.40;;;24.80;99.90;;;;;;5050078;28;20021;-75
2023/06/08 10:52:16;;;;;;;7.15;4.10;;;24.70;99.90;;;;;;5048612;28;20032;-74
2023/06/08 10:54:57;;;;;;;10.95;5.30;;;24.60;99.90;;;;;;5049653;28;20071;-76
2023/06/08 10:57:39;;;;;;;12.57;4.88;;;24.70;99.90;;;;;;5049547;28;20437;-75
2023/06/08 11:00:28;;;;;;;5.55;3.97;;;24.40;99.90;;;;;;5049600;28;20029;-74
2023/06/08 11:02:57;;;;;;;7.40;5.72;;;24.30;99.90;;;;;;5049813;28;20033;-75
2023/06/08 11:05:23;;;;;;;10.07;6.63;;;24.20;99.90;;;;;;5049136;28;20025;-76
2023/06/08 11:07:49;;;;;;;10.65;6.00;;;24.20;99.90;;;;;;5049605;28;20094;-75
2023/06/08 11:10:15;;;;;;;9.63;5.03;;;24.40;99.90;;;;;;5049515;28;20029;-74
2023/06/08 11:12:41;;;;;;;6.75;5.47;;;24.50;99.90;;;;;;5049716;28;20033;-74
2023/06/08 11:15:07;;;;;;;10.23;6.43;;;24.60;99.90;;;;;;5049444;28;20032;-75
2023/06/08 11:17:43;;;;;;;25.70;6.13;;;24.70;99.90;;;;;;5049301;28;20402;-74
2023/06/08 11:20:09;;;;;;;6.57;4.30;;;24.80;99.90;;;;;;5049509;28;20505;-76
2023/06/08 11:22:38;;;;;;;5.97;4.47;;;24.80;99.90;;;;;;5049257;28;20396;-75
2023/06/08 11:25:05;;;;;;;7.53;4.30;;;24.80;99.90;;;;;;5049128;28;20013;-76
2023/06/08 11:27:31;;;;;;;4.80;3.25;;;24.90;99.90;;;;;;5047857;28;20044;-76
2023/06/08 11:29:56;;;;;;;4.80;2.70;;;25.10;99.90;;;;;;5049253;28;20455;-76
2023/06/08 11:32:24;;;;;;;5.80;2.40;;;25.10;99.90;;;;;;5048917;28;20553;-75
2023/06/08 11:34:51;;;;;;;6.07;1.88;;;25.00;99.80;;;;;;5049159;28;20017;-75
2023/06/08 11:37:17;;;;;;;12.70;2.03;;;24.80;99.80;;;;;;5048878;28;20527;-74
2023/06/08 11:39:47;;;;;;;3.70;2.05;;;24.70;99.90;;;;;;5049190;28;20025;-74
2023/06/08 11:42:13;;;;;;;5.32;2.90;;;24.70;99.90;;;;;;5047759;28;20048;-75
2023/06/08 11:44:39;;;;;;;4.80;1.60;;;24.60;99.90;;;;;;5047626;28;20028;-75
2023/06/08 11:47:08;;;;;;;2.97;2.10;;;24.50;99.90;;;;;;5049020;28;20033;-74
2023/06/08 11:49:53;;;;;;;3.67;2.08;;;24.20;99.90;;;;;;5047758;28;20048;-76
2023/06/08 11:52:21;;;;;;;4.20;2.33;;;24.00;99.90;;;;;;5049060;28;20032;-74
2023/06/08 11:54:50;;;;;;;3.90;2.80;;;24.00;99.90;;;;;;5047436;28;20029;-76
2023/06/08 11:57:16;;;;;;;3.85;1.85;;;23.80;99.90;;;;;;5047176;28;20514;-76
2023/06/08 11:59:42;;;;;;;3.13;2.00;;;23.70;99.90;;;;;;5048804;28;20033;-74
2023/06/08 12:02:11;;;;;;;5.20;1.63;;;23.70;99.90;;;;;;5048921;28;20037;-75
2023/06/08 12:04:37;;;;;;;2.85;1.38;;;23.60;99.90;;;;;;5047511;28;20497;-74
2023/06/08 12:07:14;;;;;;;2.83;1.45;;;23.60;99.90;;;;;;5048674;28;20033;-75
2023/06/08 12:09:49;;;;;;;5.90;2.63;;;23.70;99.90;;;;;;5049314;28;20025;-75
2023/06/08 12:12:15;;;;;;;4.88;2.53;;;23.70;99.90;;;;;;5047189;28;20029;-74
2023/06/08 12:14:47;;;;;;;4.35;2.67;;;23.80;99.90;;;;;;5048328;28;20505;-74
2023/06/08 12:17:17;;;;;;;7.78;2.85;;;23.80;99.90;;;;;;5048398;28;20504;-74
2023/06/08 12:19:46;;;;;;;4.80;2.90;;;23.80;99.90;;;;;;5051385;28;20029;-76
2023/06/08 12:22:15;;;;;;;5.03;2.28;;;23.70;99.90;;;;;;5052296;28;20045;-76
2023/06/08 12:24:40;;;;;;;4.70;2.15;;;23.70;99.90;;;;;;5051185;28;20036;-76
2023/06/08 12:27:06;;;;;;;8.98;2.97;;;23.70;99.90;;;;;;5052239;28;20838;-75
2023/06/08 12:29:33;;;;;;;5.15;2.40;;;23.60;99.90;;;;;;5052644;28;20131;-76
2023/06/08 12:31:59;;;;;;;4.20;3.08;;;23.50;99.90;;;;;;5052527;28;20037;-74
2023/06/08 12:34:26;;;;;;;4.22;3.00;;;23.50;99.90;;;;;;5051029;28;20578;-75
2023/06/08 12:36:52;;;;;;;4.28;2.90;;;23.50;99.90;;;;;;5052410;28;20413;-76
2023/06/08 12:39:17;;;;;;;3.35;2.33;;;23.40;99.90;;;;;;5050869;28;20021;-75
2023/06/08 12:41:43;;;;;;;6.78;2.67;;;23.30;99.90;;;;;;5052203;28;20036;-76
2023/06/08 12:44:10;;;;;;;6.15;2.83;;;23.10;99.90;;;;;;5052414;28;20123;-75
2023/06/08 12:46:36;;;;;;;8.07;3.85;;;22.90;99.90;;;;;;5052158;28;20039;-76
2023/06/08 12:49:02;;;;;;;6.65;3.55;;;22.70;99.90;;;;;;5051903;28;20029;-75